Yellowstone Regional Airport Cody US
ICAO: KCOD
IATA: COD
Category: Medium
Scheduled Services: No

Elevation: 5102 ft
TransAlt. 18000 ft.

Airport Communications:
AWOS 3:135.075
SALT LAKE CITY CNTR:133.25
CASPER RDO:122.3
CTAF/UNICOM:122.8

KCOD Zoom In..

Runways:

(A) RW 04 length 8268 ft width 100 ft
---- / hdg 38

(B) RW 22 length 8268 ft width 100 ft
---- / hdg 218

Location; KCOD
Day. 22 / Time. 23.56 Zulu
* Altimeter: 30.06
* Temperature: -06° c. -21.2°f.
* Wind from: 040° Speed 07 kn.
Dewpoint: -09° c.
Visibility: 10 Statute Miles.
Clouds: Few 11000 ft.

KCOD 222356Z AUTO 04007KT 10SM FEW110 M06/M09 A3006 RMK AO2 SLP229 T10611089 10022 21061 53012 FZRANO


Wind From 040°
Speed 07 kn.

YouTube Music Video
 
jpsmedia.com for Web Design  worldairports.se 2018   terms of use